Weather reports worldwide

Advertisment
Wasserkuppe, Germany (10544): temperature & dewpoint: 10.09.2019 17:00:00 - 16.09.2019 17:00:00 (CEST)Wasserkuppe, Germany (10544): temperature 5cm & temperature -5cm: 10.09.2019 17:00:00 - 16.09.2019 17:00:00 (CEST)Wasserkuppe, Germany (10544): temperature -20cm & temperature -100cm: 10.09.2019 17:00:00 - 16.09.2019 17:00:00 (CEST)Wasserkuppe, Germany (10544): wind speed & gusts: 10.09.2019 17:00:00 - 16.09.2019 17:00:00 (CEST)Wasserkuppe, Germany (10544): wind direction: 10.09.2019 17:00:00 - 16.09.2019 17:00:00 (CEST)Wasserkuppe, Germany (10544): visibility: 10.09.2019 17:00:00 - 16.09.2019 17:00:00 (CEST)Wasserkuppe, Germany (10544): sunshine duration: 10.09.2019 17:00:00 - 16.09.2019 17:00:00 (CEST)Wasserkuppe, Germany (10544): precipitation: 10.09.2019 17:00:00 - 16.09.2019 17:00:00 (CEST)
Date & Time tt [°C] td [°C] tt 5cm [°C] tt -5cm [°C] tt -20cm [°C] tt -100cm [°C] ff [km/h] ff [kn] fx [km/h] fx [kn] dd vv [km] sd [min] rr [mm]
16.09.2019 17:00:00 14,0 9,7 14,3 15,9 13,6 12,8 17 9 29 16 W 82 0 0,0
16.09.2019 16:00:00 14,6 9,9 15,6 15,8 13,6 12,8 20 11 27 15 WSW 82 0 0,0
16.09.2019 15:00:00 14,8 9,8 15,9 15,5 13,5 12,8 18 10 27 15 WSW 82 0 0,0
16.09.2019 14:00:00 15,2 9,8 15,9 15,1 13,5 12,8 19 10 28 15 WSW 75 0 0,0
16.09.2019 13:00:00 15,0 10,2 16,1 14,4 13,5 12,8 18 10 25 14 WSW 50 1 0,0
16.09.2019 12:00:00 14,6 10,3 16,3 13,4 13,5 12,8 18 10 23 12 SW 60 0 0,0
16.09.2019 11:00:00 13,5 10,0 14,5 12,6 13,6 12,8 11 6 19 10 WSW 45 0 0,0
16.09.2019 10:00:00 12,8 10,6 13,4 12,0 13,7 12,8 11 6 14 8 SW 35 0 0,0
16.09.2019 09:00:00 12,0 10,4 11,9 11,7 13,8 12,8 6 3 16 8 S 18 0 0,0
16.09.2019 08:00:00 11,3 10,4 10,5 11,5 13,9 12,8 9 5 20 11 NW 17 0 0,0
16.09.2019 07:00:00 11,2 10,7 10,5 11,5 14,0 12,8 16 9 30 16 N 0,9 0 0,0
16.09.2019 06:00:00 11,5 10,3 10,5 11,5 14,1 12,8 20 11 23 12 N 30 0 0,0
16.09.2019 05:00:00 11,7 4,0 10,3 11,7 14,2 12,8 18 10 33 18 N 50 0 0,0
16.09.2019 04:00:00 11,9 3,7 10,2 12,0 14,3 12,8 18 10 24 13 NW 43 0 0,0
16.09.2019 03:00:00 12,2 3,5 10,2 12,4 14,4 12,8 17 9 24 13 NW 47 0 0,0
16.09.2019 02:00:00 13,0 3,2 11,1 12,8 14,5 12,8 18 10 30 16 NNW 44 0 0,0
16.09.2019 01:00:00 13,5 3,1 11,4 13,3 14,5 12,8 19 11 29 16 NW 52 0 0,0
16.09.2019 00:00:00 13,2 2,8 10,9 14,0 14,5 12,8 16 9 23 12 NW 49 0 0,0
15.09.2019 23:00:00 13,7 2,5 11,3 14,7 14,5 12,8 15 8 24 13 NW 54 0 0,0
15.09.2019 22:00:00 14,5 1,9 12,4 15,6 14,4 12,8 17 9 32 17 WNW 60 0 0,0
15.09.2019 21:00:00 15,4 3,8 13,7 16,5 14,2 12,8 18 10 30 16 WNW 58 0 0,0
15.09.2019 20:00:00 15,7 5,9 14,0 17,6 14,0 12,8 14 8 29 16 W 63 11 0,0
15.09.2019 19:00:00 17,1 7,4 16,1 18,6 13,8 12,8 18 10 33 18 W 46 55 0,0
15.09.2019 18:00:00 18,7 6,7 19,0 19,1 13,6 12,8 19 11 33 18 W 53 59 0,0
15.09.2019 17:00:00 20,0 7,1 21,4 19,2 13,4 12,8 22 12 32 17 W 70 60 0,0
15.09.2019 16:00:00 19,9 6,7 22,0 18,7 13,2 12,8 19 11 33 18 W 70 60 0,0
15.09.2019 15:00:00 20,1 6,7 23,3 17,7 13,1 12,8 18 10 33 18 W 70 60 0,0
15.09.2019 14:00:00 19,8 9,4 22,8 16,3 13,0 12,8 19 11 29 16 WSW 75 60 0,0
15.09.2019 13:00:00 19,0 9,6 21,9 14,8 13,0 12,8 17 9 27 15 WSW 75 60 0,0
15.09.2019 12:00:00 17,6 9,9 20,3 13,1 13,0 12,9 18 10 26 14 WSW 70 59 0,0
15.09.2019 11:00:00 16,5 10,5 18,6 11,6 13,1 12,9 21 11 27 14 WSW 70 60 0,0
15.09.2019 10:00:00 15,2 10,2 16,5 10,5 13,2 12,9 18 10 26 14 W 70 59 0,0
15.09.2019 09:00:00 14,1 9,9 12,9 10,1 13,4 12,9 20 11 31 17 WSW 65 60 0,0
15.09.2019 08:00:00 11,9 9,4 9,3 10,1 13,5 12,9 21 12 28 15 WSW 65 41 0,0
15.09.2019 07:00:00 11,2 8,8 8,4 10,3 13,6 12,9 22 12 27 15 SW 60 0 0,0
15.09.2019 06:00:00 11,1 8,8 8,8 10,5 13,7 12,9 21 11 26 14 SW 50 0 0,0
15.09.2019 05:00:00 11,0 8,4 8,8 10,7 13,9 12,9 23 12 31 17 SSW 36 0 0,0
15.09.2019 04:00:00 10,8 8,1 7,9 11,0 14,0 12,9 24 13 27 15 S 38 0 0,0
15.09.2019 03:00:00 10,7 7,5 8,4 11,4 14,1 12,9 22 12 26 14 S 44 0 0,0
15.09.2019 02:00:00 10,6 7,4 9,1 11,8 14,2 12,9 20 11 23 12 SSW 36 0 0,0
15.09.2019 01:00:00 10,3 7,2 7,7 12,3 14,2 12,9 15 8 19 10 SSW 40 0 0,0
15.09.2019 00:00:00 10,8 7,0 7,0 13,0 14,3 12,9 12 7 16 9 S 52 0 0,0
14.09.2019 23:00:00 11,6 7,2 7,9 13,7 14,2 12,9 12 7 16 8 SSE 51 0 0,0
14.09.2019 22:00:00 12,1 7,1 7,9 14,6 14,2 12,9 10 5 13 7 ESE 42 0 0,0
14.09.2019 21:00:00 12,7 6,9 9,0 15,6 14,0 12,9 11 6 13 7 ENE 45 0 0,0
14.09.2019 20:00:00 13,3 6,7 11,0 16,8 13,8 12,9 10 5 13 7 NNE 50 21 0,0
14.09.2019 19:00:00 15,1 7,2 15,0 17,8 13,6 12,9 10 6 18 10 N 46 59 0,0
14.09.2019 18:00:00 16,8 6,9 17,7 18,4 13,4 12,9 10 5 16 8 N 57 60 0,0
14.09.2019 17:00:00 17,5 7,2 20,8 18,6 13,2 12,9 10 5 18 10 N 82 59 0,0
14.09.2019 16:00:00 17,7 8,0 21,4 18,2 13,0 12,9 11 6 19 10 NNW 82 60 0,0
14.09.2019 15:00:00 17,5 8,0 21,7 17,2 12,9 13,0 8 4 14 7 N 80 60 0,0
14.09.2019 14:00:00 17,1 8,6 19,0 15,9 12,8 13,0 6 3 21 12 W 80 47 0,0
14.09.2019 13:00:00 15,8 7,7 20,4 14,4 12,8 13,0 9 5 16 9 SE 75 41 0,0
14.09.2019 12:00:00 13,9 7,9 15,5 13,1 12,9 13,0 8 4 20 11 S 75 48 0,0
14.09.2019 11:00:00 14,1 8,6 17,3 11,1 13,0 13,0 16 9 27 15 SE 60 60 0,0
14.09.2019 10:00:00 12,0 7,5 13,4 9,9 13,1 13,0 22 12 30 16 ESE 55 60 0,0
14.09.2019 09:00:00 10,2 6,7 7,9 9,7 13,2 13,0 15 8 22 12 ESE 55 60 0,0
14.09.2019 08:00:00 8,6 5,7 6,3 10,0 13,4 13,0 14 7 19 11 E 45 14 0,0
14.09.2019 07:00:00 7,8 5,5 5,2 10,4 13,4 13,0 13 7 24 13 E 45 0 0,0
14.09.2019 06:00:00 8,2 6,1 6,3 10,8 13,5 13,0 16 9 23 12 ENE 45 0 0,0
14.09.2019 05:00:00 8,2 7,2 6,4 11,3 13,6 13,0 15 8 21 12 ENE 30 0 0,0
14.09.2019 04:00:00 8,8 8,0 7,1 11,8 13,6 13,0 14 7 19 10 ENE 28 0 0,0
14.09.2019 03:00:00 9,5 8,8 8,0 12,3 13,7 13,0 14 8 21 11 ENE 23 0 0,0
14.09.2019 02:00:00 10,1 9,9 9,4 12,7 13,7 13,0 17 9 28 15 NNE 1,8 0 0,0
14.09.2019 01:00:00 11,0 10,9 10,9 12,9 13,7 13,0 22 12 30 16 NNE 0,1 0 0,0
14.09.2019 00:00:00 11,3 11,0 11,0 13,2 13,7 13,0 23 12 29 15 N 3,8 0 0,0
13.09.2019 23:00:00 11,6 10,9 10,7 13,6 13,7 13,0 19 10 24 13 N 20 0 0,0
13.09.2019 22:00:00 12,0 11,1 11,0 14,1 13,7 13,1 20 11 26 14 N 24 0 0,0
13.09.2019 21:00:00 12,5 10,9 11,4 14,7 13,6 13,1 24 13 29 16 N 37 0 0,0
13.09.2019 20:00:00 13,3 11,9 12,8 15,2 13,5 13,1 19 10 24 13 N 22 0 0,0
13.09.2019 19:00:00 14,4 12,5 13,8 15,6 13,4 13,1 8 5 17 9 N 26 0 0,0
13.09.2019 18:00:00 15,1 12,8 14,7 15,8 13,3 13,1 9 5 18 10 W 32 11 0,0
13.09.2019 17:00:00 15,9 12,1 16,1 15,3 13,3 13,1 13 7 22 12 WNW 45 47 0,0
13.09.2019 16:00:00 15,1 13,6 15,9 14,2 13,2 13,1 11 6 20 11 W 20 19 0,0
13.09.2019 15:00:00 13,1 12,7 13,4 13,8 13,2 13,1 10 6 19 10 WNW 0,6 0 0,0
13.09.2019 14:00:00 13,0 12,9 13,3 13,6 13,2 13,1 10 6 21 11 WNW 0,1 0 0,0
13.09.2019 13:00:00 12,8 12,7 13,1 13,3 13,2 13,1 14 8 28 15 W 0,1 0 0,0
13.09.2019 12:00:00 12,7 12,6 13,1 13,1 13,2 13,1 16 9 26 14 W 0,1 0 0,1
13.09.2019 11:00:00 12,4 12,3 12,5 12,9 13,2 13,1 15 8 29 15 W 0,1 0 0,6
13.09.2019 10:00:00 12,4 12,2 12,7 12,7 13,3 13,1 19 10 31 17 W 0,1 0 0,0
13.09.2019 09:00:00 12,4 12,3 12,7 12,4 13,3 13,1 14 8 26 14 W 0,1 0 0,0
13.09.2019 08:00:00 12,1 12,0 12,1 12,3 13,3 13,1 16 9 27 15 W 0,1 0 0,0
13.09.2019 07:00:00 12,4 12,2 12,2 12,2 13,4 13,1 17 9 28 15 W 0,5 0 0,0
13.09.2019 06:00:00 12,3 11,8 12,1 12,1 13,4 13,2 16 9 25 13 W 20 0 0,0
13.09.2019 05:00:00 12,2 11,1 11,2 12,1 13,5 13,2 15 8 23 13 W 24 0 0,0
13.09.2019 04:00:00 12,2 11,0 11,0 12,3 13,5 13,2 13 7 25 14 W 33 0 0,0
13.09.2019 03:00:00 13,0 10,7 11,7 12,5 13,6 13,2 16 9 29 15 WNW 43 0 0,0
13.09.2019 02:00:00 12,5 11,1 11,1 12,7 13,6 13,2 16 9 26 14 WNW 42 0 0,0
13.09.2019 01:00:00 12,7 12,0 11,7 12,9 13,6 13,2 17 9 32 18 W 41 0 0,0
13.09.2019 00:00:00 12,8 12,0 11,7 13,2 13,6 13,2 20 11 34 19 W 46 0 0,0
12.09.2019 23:00:00 13,2 12,2 11,9 13,5 13,6 13,2 22 12 41 22 W 38 0 0,0
12.09.2019 22:00:00 13,2 12,1 11,4 14,0 13,5 13,2 24 13 35 19 WSW 48 0 0,0
12.09.2019 21:00:00 13,5 12,3 11,8 14,6 13,4 13,2 27 15 35 19 WSW 47 0 0,0
12.09.2019 20:00:00 13,5 12,5 12,1 15,3 13,3 13,2 23 12 34 18 WSW 35 13 0,0
12.09.2019 19:00:00 15,1 12,8 15,2 15,8 13,2 13,2 24 13 34 18 WSW 48 38 0,0
12.09.2019 18:00:00 15,2 13,0 15,5 15,9 13,1 13,2 19 10 30 16 WSW 43 14 0,0
12.09.2019 17:00:00 16,3 13,5 18,9 15,6 13,0 13,2 21 11 32 17 WSW 60 15 0,0
12.09.2019 16:00:00 15,0 13,2 15,8 15,2 12,9 13,2 19 10 29 16 WSW 40 7 0,1
12.09.2019 15:00:00 14,5 12,5 14,8 14,9 12,8 13,3 16 9 28 15 W 40 4 0,0
12.09.2019 14:00:00 14,6 13,0 16,3 14,3 12,8 13,3 16 9 26 14 W 30 4 0,0
12.09.2019 13:00:00 13,9 12,4 14,6 13,4 12,8 13,3 17 9 24 13 WSW 35 2 0,0
12.09.2019 12:00:00 12,1 11,6 13,1 12,5 12,8 13,3 14 8 19 10 SW 9 0 0,0
12.09.2019 11:00:00 11,1 10,8 11,9 12,1 12,8 13,3 16 8 23 12 SW 4,0 0 0,0
12.09.2019 10:00:00 10,7 10,3 11,1 11,7 12,9 13,3 14 8 26 14 SW 9 0 0,1
12.09.2019 09:00:00 10,5 10,2 10,6 11,6 12,9 13,3 18 10 27 14 SW 10 0 0,5
12.09.2019 08:00:00 10,3 10,2 10,3 11,5 13,0 13,3 21 11 30 16 WSW 0,2 0 0,3
12.09.2019 07:00:00 10,0 9,9 9,9 11,6 13,0 13,3 18 10 31 17 SW 0,1 0 0,9
12.09.2019 06:00:00 9,9 9,8 9,9 11,6 13,0 13,3 22 12 31 17 SW 0,2 0 0,6
12.09.2019 05:00:00 9,6 9,2 9,4 11,8 13,1 13,3 24 13 34 18 SW 1,8 0 0,0
12.09.2019 04:00:00 9,9 9,4 9,7 11,9 13,1 13,3 24 13 32 18 WSW 22 0 0,0
12.09.2019 03:00:00 9,5 9,1 9,4 12,0 13,1 13,3 26 14 37 20 WSW 13 0 0,0
12.09.2019 02:00:00 9,2 9,0 9,2 12,2 13,1 13,3 26 14 37 20 WSW 5 0 0,2
12.09.2019 01:00:00 9,3 9,1 9,2 12,5 13,1 13,4 24 13 40 21 W 5 0 1,0
12.09.2019 00:00:00 9,0 8,8 9,0 12,8 13,1 13,4 29 16 43 23 WSW 0,1 0 0,5
11.09.2019 23:00:00 10,3 8,2 9,9 13,2 13,0 13,4 25 13 42 23 W 17 0 0,0
11.09.2019 22:00:00 11,5 6,6 11,0 13,8 12,9 13,4 29 16 44 24 WSW 46 0 0,0
11.09.2019 21:00:00 12,1 6,7 11,4 14,4 12,8 13,4 34 18 43 23 SW 64 0 0,0
11.09.2019 20:00:00 12,6 6,3 12,1 15,1 12,6 13,4 27 14 36 20 SW 49 0 0,0
11.09.2019 19:00:00 13,4 5,4 13,3 15,9 12,4 13,4 24 13 34 18 WSW 62 4 0,0
11.09.2019 18:00:00 15,6 5,1 16,5 16,5 12,1 13,4 21 11 41 22 WSW 60 60 0,0
11.09.2019 17:00:00 15,3 5,6 16,9 16,6 11,9 13,4 23 12 41 22 SW 82 56 0,0
11.09.2019 16:00:00 16,9 5,6 20,4 16,0 11,7 13,4 23 13 41 22 SW 82 48 0,0
11.09.2019 15:00:00 16,7 5,2 20,2 15,3 11,6 13,4 21 11 36 19 WSW 75 56 0,0
11.09.2019 14:00:00 17,1 6,2 20,7 13,9 11,5 13,4 22 12 42 23 SSW 75 59 0,0
11.09.2019 13:00:00 16,2 5,1 18,7 12,3 11,5 13,4 24 13 33 18 SW 75 59 0,0
11.09.2019 12:00:00 14,9 6,0 17,6 10,6 11,6 13,4 22 12 34 19 SW 75 54 0,0
11.09.2019 11:00:00 14,2 5,1 16,4 8,9 11,7 13,4 21 11 32 17 WSW 70 60 0,0
11.09.2019 10:00:00 12,5 6,3 14,2 7,3 11,8 13,4 18 10 24 13 SSW 60 59 0,0
11.09.2019 09:00:00 10,8 5,5 10,0 6,7 12,0 13,5 14 8 19 11 SSW 45 59 0,0
11.09.2019 08:00:00 7,4 4,3 5,3 6,7 12,1 13,5 14 7 17 9 S 45 37 0,0
11.09.2019 07:00:00 6,8 4,1 2,2 7,0 12,2 13,5 11 6 12 7 SSW 40 0 0,0
11.09.2019 06:00:00 6,8 3,5 2,4 7,3 12,4 13,5 9 5 10 5 SW 40 0 0,0
11.09.2019 05:00:00 7,6 4,2 3,6 7,7 12,5 13,5 8 5 9 5 WSW 45 0 0,0
11.09.2019 04:00:00 7,1 3,7 2,9 8,1 12,6 13,5 8 5 11 6 WSW 46 0 0,0
11.09.2019 03:00:00 7,4 3,8 2,7 8,6 12,7 13,5 9 5 11 6 WSW 53 0 0,0
11.09.2019 02:00:00 8,0 3,5 3,4 9,1 12,8 13,5 9 5 11 6 W 51 0 0,0
11.09.2019 01:00:00 8,5 3,7 3,5 9,6 12,9 13,5 7 4 10 6 W 49 0 0,0
11.09.2019 00:00:00 8,5 3,7 3,5 10,2 12,9 13,5 7 4 11 6 W 47 0 0,0
10.09.2019 23:00:00 8,1 3,9 4,1 10,9 12,9 13,5 8 5 11 6 WSW 57 0 0,0
10.09.2019 22:00:00 9,0 3,9 6,2 11,7 12,8 13,5 9 5 13 7 W 42 0 0,0
10.09.2019 21:00:00 9,4 4,0 6,1 12,5 12,7 13,5 8 4 13 7 W 49 0 0,0
10.09.2019 20:00:00 9,9 3,9 7,4 13,5 12,6 13,5 9 5 17 9 W 56 21 0,0
10.09.2019 19:00:00 12,4 3,4 11,3 14,3 12,5 13,5 11 6 19 11 W 57 59 0,0
10.09.2019 18:00:00 14,2 3,9 15,3 14,4 12,3 13,5 13 7 20 11 W 64 58 0,0
10.09.2019 17:00:00 13,3 4,5 15,6 14,1 12,2 13,5 8 4 16 9 W 45 25 0,0

tt = temperature
td = dewpoint
tt 5cm = temperature 5cm
tt -5cm = temperature -5cm
tt -20cm = temperature -20cm
tt -100cm = temperature -100cm
ff = wind speed
fx = gusts
dd = wind direction
vv = visibility
sd = sunshine duration
rr = precipitation

Next stations